sensor_id;sensor_type;location;lat;lon;timestamp;P1;durP1;ratioP1;P2;durP2;ratioP2
7941;SDS011;4016;50.758;7.150;2023-09-18T00:02:30;6.43;;;5.80;;
7941;SDS011;4016;50.758;7.150;2023-09-18T00:07:31;7.18;;;6.47;;
7941;SDS011;4016;50.758;7.150;2023-09-18T00:12:31;6.20;;;5.60;;
7941;SDS011;4016;50.758;7.150;2023-09-18T00:17:32;7.18;;;5.47;;
7941;SDS011;4016;50.758;7.150;2023-09-18T00:22:32;9.57;;;5.60;;
7941;SDS011;4016;50.758;7.150;2023-09-18T00:27:33;7.50;;;6.30;;
7941;SDS011;4016;50.758;7.150;2023-09-18T00:32:36;6.38;;;5.43;;
7941;SDS011;4016;50.758;7.150;2023-09-18T00:37:36;6.60;;;5.88;;
7941;SDS011;4016;50.758;7.150;2023-09-18T00:42:37;5.80;;;5.22;;
7941;SDS011;4016;50.758;7.150;2023-09-18T00:47:37;9.45;;;5.50;;
7941;SDS011;4016;50.758;7.150;2023-09-18T00:52:37;6.03;;;5.53;;
7941;SDS011;4016;50.758;7.150;2023-09-18T00:57:39;7.00;;;6.38;;
7941;SDS011;4016;50.758;7.150;2023-09-18T01:02:39;6.45;;;5.85;;
7941;SDS011;4016;50.758;7.150;2023-09-18T01:07:40;6.10;;;5.50;;
7941;SDS011;4016;50.758;7.150;2023-09-18T01:12:47;7.68;;;6.05;;
7941;SDS011;4016;50.758;7.150;2023-09-18T01:17:55;6.35;;;5.72;;
7941;SDS011;4016;50.758;7.150;2023-09-18T01:22:56;6.60;;;5.90;;
7941;SDS011;4016;50.758;7.150;2023-09-18T01:27:56;7.20;;;5.75;;
7941;SDS011;4016;50.758;7.150;2023-09-18T01:32:57;7.18;;;6.35;;
7941;SDS011;4016;50.758;7.150;2023-09-18T01:37:59;6.25;;;5.65;;
7941;SDS011;4016;50.758;7.150;2023-09-18T01:43:00;6.80;;;6.07;;
7941;SDS011;4016;50.758;7.150;2023-09-18T01:48:03;6.70;;;6.00;;
7941;SDS011;4016;50.758;7.150;2023-09-18T01:53:06;8.00;;;6.65;;
7941;SDS011;4016;50.758;7.150;2023-09-18T01:58:06;7.32;;;5.95;;
7941;SDS011;4016;50.758;7.150;2023-09-18T02:03:07;7.25;;;6.47;;
7941;SDS011;4016;50.758;7.150;2023-09-18T02:08:07;9.63;;;6.10;;
7941;SDS011;4016;50.758;7.150;2023-09-18T02:13:07;7.85;;;6.20;;
7941;SDS011;4016;50.758;7.150;2023-09-18T02:18:08;6.35;;;5.10;;
7941;SDS011;4016;50.758;7.150;2023-09-18T02:23:08;8.10;;;6.53;;
7941;SDS011;4016;50.758;7.150;2023-09-18T02:28:09;6.82;;;5.82;;
7941;SDS011;4016;50.758;7.150;2023-09-18T02:33:09;5.60;;;5.05;;
7941;SDS011;4016;50.758;7.150;2023-09-18T02:38:09;5.90;;;5.30;;
7941;SDS011;4016;50.758;7.150;2023-09-18T02:43:10;7.25;;;5.63;;
7941;SDS011;4016;50.758;7.150;2023-09-18T02:48:10;6.95;;;5.53;;
7941;SDS011;4016;50.758;7.150;2023-09-18T02:53:17;6.50;;;5.10;;
7941;SDS011;4016;50.758;7.150;2023-09-18T02:58:19;6.68;;;5.00;;
7941;SDS011;4016;50.758;7.150;2023-09-18T03:03:20;8.30;;;4.93;;
7941;SDS011;4016;50.758;7.150;2023-09-18T03:08:21;9.30;;;6.10;;
7941;SDS011;4016;50.758;7.150;2023-09-18T03:13:21;7.35;;;5.53;;
7941;SDS011;4016;50.758;7.150;2023-09-18T03:18:23;7.07;;;4.50;;
7941;SDS011;4016;50.758;7.150;2023-09-18T03:23:23;5.30;;;4.20;;
7941;SDS011;4016;50.758;7.150;2023-09-18T03:28:24;8.00;;;5.28;;
7941;SDS011;4016;50.758;7.150;2023-09-18T03:33:24;6.97;;;4.32;;
7941;SDS011;4016;50.758;7.150;2023-09-18T03:38:25;7.35;;;4.47;;
7941;SDS011;4016;50.758;7.150;2023-09-18T03:43:25;5.40;;;4.25;;
7941;SDS011;4016;50.758;7.150;2023-09-18T03:48:26;10.10;;;4.82;;
7941;SDS011;4016;50.758;7.150;2023-09-18T03:53:27;9.25;;;4.50;;
7941;SDS011;4016;50.758;7.150;2023-09-18T03:58:27;6.50;;;4.95;;
7941;SDS011;4016;50.758;7.150;2023-09-18T04:03:28;9.00;;;4.63;;
7941;SDS011;4016;50.758;7.150;2023-09-18T04:08:28;8.07;;;5.35;;
7941;SDS011;4016;50.758;7.150;2023-09-18T04:13:28;5.85;;;4.38;;
7941;SDS011;4016;50.758;7.150;2023-09-18T04:18:29;6.47;;;4.72;;
7941;SDS011;4016;50.758;7.150;2023-09-18T04:23:29;9.93;;;4.88;;
7941;SDS011;4016;50.758;7.150;2023-09-18T04:28:30;5.22;;;4.57;;
7941;SDS011;4016;50.758;7.150;2023-09-18T04:33:30;6.60;;;4.50;;
7941;SDS011;4016;50.758;7.150;2023-09-18T04:38:31;9.15;;;4.80;;
7941;SDS011;4016;50.758;7.150;2023-09-18T04:43:31;7.20;;;4.53;;
7941;SDS011;4016;50.758;7.150;2023-09-18T04:48:32;7.15;;;4.80;;
7941;SDS011;4016;50.758;7.150;2023-09-18T04:53:32;6.32;;;4.03;;
7941;SDS011;4016;50.758;7.150;2023-09-18T04:58:33;6.82;;;4.05;;
7941;SDS011;4016;50.758;7.150;2023-09-18T05:03:34;5.90;;;4.03;;
7941;SDS011;4016;50.758;7.150;2023-09-18T05:08:34;5.97;;;3.90;;
7941;SDS011;4016;50.758;7.150;2023-09-18T05:13:35;5.38;;;3.97;;
7941;SDS011;4016;50.758;7.150;2023-09-18T05:18:35;7.03;;;4.30;;
7941;SDS011;4016;50.758;7.150;2023-09-18T05:23:36;7.05;;;3.92;;
7941;SDS011;4016;50.758;7.150;2023-09-18T05:28:36;6.05;;;3.75;;
7941;SDS011;4016;50.758;7.150;2023-09-18T05:33:37;5.97;;;4.00;;
7941;SDS011;4016;50.758;7.150;2023-09-18T05:38:37;6.65;;;3.75;;
7941;SDS011;4016;50.758;7.150;2023-09-18T05:43:38;7.35;;;3.80;;
7941;SDS011;4016;50.758;7.150;2023-09-18T05:48:38;5.35;;;3.45;;
7941;SDS011;4016;50.758;7.150;2023-09-18T05:53:38;4.15;;;3.60;;
7941;SDS011;4016;50.758;7.150;2023-09-18T05:58:39;5.45;;;3.40;;
7941;SDS011;4016;50.758;7.150;2023-09-18T06:03:39;4.35;;;3.20;;
7941;SDS011;4016;50.758;7.150;2023-09-18T06:08:40;5.22;;;3.28;;
7941;SDS011;4016;50.758;7.150;2023-09-18T06:13:40;4.53;;;2.88;;
7941;SDS011;4016;50.758;7.150;2023-09-18T06:18:40;4.43;;;2.85;;
7941;SDS011;4016;50.758;7.150;2023-09-18T06:23:41;3.92;;;2.92;;
7941;SDS011;4016;50.758;7.150;2023-09-18T06:28:41;3.83;;;2.73;;
7941;SDS011;4016;50.758;7.150;2023-09-18T06:33:42;2.57;;;2.23;;
7941;SDS011;4016;50.758;7.150;2023-09-18T06:38:42;3.25;;;2.80;;
7941;SDS011;4016;50.758;7.150;2023-09-18T06:43:42;4.40;;;2.85;;
7941;SDS011;4016;50.758;7.150;2023-09-18T06:48:43;4.90;;;2.92;;
7941;SDS011;4016;50.758;7.150;2023-09-18T06:53:49;3.20;;;2.70;;
7941;SDS011;4016;50.758;7.150;2023-09-18T06:58:49;3.35;;;2.65;;
7941;SDS011;4016;50.758;7.150;2023-09-18T07:03:51;3.85;;;2.67;;
7941;SDS011;4016;50.758;7.150;2023-09-18T07:08:51;3.03;;;2.55;;
7941;SDS011;4016;50.758;7.150;2023-09-18T07:13:53;6.03;;;2.90;;
7941;SDS011;4016;50.758;7.150;2023-09-18T07:18:53;3.05;;;2.58;;
7941;SDS011;4016;50.758;7.150;2023-09-18T07:23:53;4.85;;;2.83;;
7941;SDS011;4016;50.758;7.150;2023-09-18T07:28:54;4.15;;;2.67;;
7941;SDS011;4016;50.758;7.150;2023-09-18T07:33:54;4.57;;;2.50;;
7941;SDS011;4016;50.758;7.150;2023-09-18T07:38:54;3.00;;;2.70;;
7941;SDS011;4016;50.758;7.150;2023-09-18T07:43:56;3.75;;;2.47;;
7941;SDS011;4016;50.758;7.150;2023-09-18T07:48:58;2.80;;;2.58;;
7941;SDS011;4016;50.758;7.150;2023-09-18T07:53:58;3.67;;;2.58;;
7941;SDS011;4016;50.758;7.150;2023-09-18T07:58:59;2.95;;;2.63;;
7941;SDS011;4016;50.758;7.150;2023-09-18T08:04:00;3.13;;;2.03;;
7941;SDS011;4016;50.758;7.150;2023-09-18T08:09:00;4.45;;;2.42;;
7941;SDS011;4016;50.758;7.150;2023-09-18T08:14:01;4.45;;;2.65;;
7941;SDS011;4016;50.758;7.150;2023-09-18T08:19:01;3.60;;;3.08;;
7941;SDS011;4016;50.758;7.150;2023-09-18T08:24:02;3.00;;;2.80;;
7941;SDS011;4016;50.758;7.150;2023-09-18T08:29:02;2.92;;;2.63;;
7941;SDS011;4016;50.758;7.150;2023-09-18T08:34:03;3.75;;;2.78;;
7941;SDS011;4016;50.758;7.150;2023-09-18T08:39:03;3.35;;;3.00;;
7941;SDS011;4016;50.758;7.150;2023-09-18T08:44:07;4.55;;;2.80;;
7941;SDS011;4016;50.758;7.150;2023-09-18T08:49:09;4.22;;;2.90;;
7941;SDS011;4016;50.758;7.150;2023-09-18T08:54:11;3.22;;;2.53;;
7941;SDS011;4016;50.758;7.150;2023-09-18T08:59:12;3.92;;;2.40;;
7941;SDS011;4016;50.758;7.150;2023-09-18T09:04:13;2.85;;;2.55;;
7941;SDS011;4016;50.758;7.150;2023-09-18T09:09:14;3.20;;;2.65;;
7941;SDS011;4016;50.758;7.150;2023-09-18T09:14:15;3.78;;;2.47;;
7941;SDS011;4016;50.758;7.150;2023-09-18T09:19:32;3.33;;;2.63;;
7941;SDS011;4016;50.758;7.150;2023-09-18T09:24:40;3.80;;;2.70;;
7941;SDS011;4016;50.758;7.150;2023-09-18T09:29:42;2.75;;;2.55;;
7941;SDS011;4016;50.758;7.150;2023-09-18T09:34:44;2.35;;;2.13;;
7941;SDS011;4016;50.758;7.150;2023-09-18T09:39:49;5.47;;;3.13;;
7941;SDS011;4016;50.758;7.150;2023-09-18T09:45:03;3.63;;;2.53;;
7941;SDS011;4016;50.758;7.150;2023-09-18T09:50:06;3.50;;;3.20;;
7941;SDS011;4016;50.758;7.150;2023-09-18T09:55:21;2.90;;;2.45;;
7941;SDS011;4016;50.758;7.150;2023-09-18T10:00:25;2.88;;;2.53;;
7941;SDS011;4016;50.758;7.150;2023-09-18T10:05:34;2.80;;;2.50;;
7941;SDS011;4016;50.758;7.150;2023-09-18T10:10:37;2.85;;;2.33;;
7941;SDS011;4016;50.758;7.150;2023-09-18T10:15:40;2.67;;;2.42;;
7941;SDS011;4016;50.758;7.150;2023-09-18T10:20:43;2.50;;;2.30;;
7941;SDS011;4016;50.758;7.150;2023-09-18T10:25:45;2.55;;;2.40;;
7941;SDS011;4016;50.758;7.150;2023-09-18T10:30:51;2.10;;;1.90;;
7941;SDS011;4016;50.758;7.150;2023-09-18T10:35:53;2.65;;;2.45;;
7941;SDS011;4016;50.758;7.150;2023-09-18T10:40:55;2.88;;;2.58;;
7941;SDS011;4016;50.758;7.150;2023-09-18T10:45:57;3.00;;;2.22;;
7941;SDS011;4016;50.758;7.150;2023-09-18T10:50:58;2.97;;;2.58;;
7941;SDS011;4016;50.758;7.150;2023-09-18T10:56:04;2.28;;;2.03;;
7941;SDS011;4016;50.758;7.150;2023-09-18T11:01:05;2.85;;;2.03;;
7941;SDS011;4016;50.758;7.150;2023-09-18T11:06:06;2.78;;;2.40;;
7941;SDS011;4016;50.758;7.150;2023-09-18T11:11:10;2.45;;;2.08;;
7941;SDS011;4016;50.758;7.150;2023-09-18T11:21:38;1.90;;;1.80;;
7941;SDS011;4016;50.758;7.150;2023-09-18T11:26:42;2.03;;;1.83;;
7941;SDS011;4016;50.758;7.150;2023-09-18T11:31:50;2.72;;;2.53;;
7941;SDS011;4016;50.758;7.150;2023-09-18T11:36:54;1.95;;;1.85;;
7941;SDS011;4016;50.758;7.150;2023-09-18T11:41:57;2.10;;;2.00;;
7941;SDS011;4016;50.758;7.150;2023-09-18T11:47:10;3.35;;;2.60;;
7941;SDS011;4016;50.758;7.150;2023-09-18T11:52:22;2.53;;;2.33;;
7941;SDS011;4016;50.758;7.150;2023-09-18T11:57:23;3.08;;;2.63;;
7941;SDS011;4016;50.758;7.150;2023-09-18T12:02:25;2.20;;;2.00;;
7941;SDS011;4016;50.758;7.150;2023-09-18T12:07:27;2.97;;;2.13;;
7941;SDS011;4016;50.758;7.150;2023-09-18T12:12:31;2.28;;;2.03;;
7941;SDS011;4016;50.758;7.150;2023-09-18T12:17:32;3.28;;;2.65;;
7941;SDS011;4016;50.758;7.150;2023-09-18T12:22:32;2.67;;;2.35;;
7941;SDS011;4016;50.758;7.150;2023-09-18T12:27:35;2.45;;;2.28;;
7941;SDS011;4016;50.758;7.150;2023-09-18T12:32:36;2.33;;;2.13;;
7941;SDS011;4016;50.758;7.150;2023-09-18T12:37:40;2.22;;;2.03;;
7941;SDS011;4016;50.758;7.150;2023-09-18T12:42:41;2.72;;;2.53;;
7941;SDS011;4016;50.758;7.150;2023-09-18T12:47:41;2.60;;;2.40;;
7941;SDS011;4016;50.758;7.150;2023-09-18T12:52:43;3.35;;;2.90;;
7941;SDS011;4016;50.758;7.150;2023-09-18T12:57:44;5.72;;;2.88;;
7941;SDS011;4016;50.758;7.150;2023-09-18T13:02:45;2.95;;;2.63;;
7941;SDS011;4016;50.758;7.150;2023-09-18T13:07:46;2.58;;;2.38;;
7941;SDS011;4016;50.758;7.150;2023-09-18T13:12:48;2.95;;;2.60;;
7941;SDS011;4016;50.758;7.150;2023-09-18T13:17:54;2.58;;;2.38;;
7941;SDS011;4016;50.758;7.150;2023-09-18T13:22:55;3.47;;;2.80;;
7941;SDS011;4016;50.758;7.150;2023-09-18T13:27:57;6.43;;;3.35;;
7941;SDS011;4016;50.758;7.150;2023-09-18T13:33:02;2.63;;;2.42;;
7941;SDS011;4016;50.758;7.150;2023-09-18T13:38:07;3.95;;;2.30;;
7941;SDS011;4016;50.758;7.150;2023-09-18T13:43:08;3.60;;;2.42;;
7941;SDS011;4016;50.758;7.150;2023-09-18T13:48:09;2.50;;;2.30;;
7941;SDS011;4016;50.758;7.150;2023-09-18T13:53:09;3.40;;;2.20;;
7941;SDS011;4016;50.758;7.150;2023-09-18T13:58:10;3.53;;;2.38;;
7941;SDS011;4016;50.758;7.150;2023-09-18T14:03:10;4.60;;;2.50;;
7941;SDS011;4016;50.758;7.150;2023-09-18T14:08:11;2.63;;;2.42;;
7941;SDS011;4016;50.758;7.150;2023-09-18T14:13:12;2.53;;;2.33;;
7941;SDS011;4016;50.758;7.150;2023-09-18T14:18:12;2.97;;;2.53;;
7941;SDS011;4016;50.758;7.150;2023-09-18T14:23:13;2.78;;;2.58;;
7941;SDS011;4016;50.758;7.150;2023-09-18T14:28:13;4.13;;;2.63;;
7941;SDS011;4016;50.758;7.150;2023-09-18T14:33:13;2.27;;;2.07;;
7941;SDS011;4016;50.758;7.150;2023-09-18T14:38:14;2.35;;;2.15;;
7941;SDS011;4016;50.758;7.150;2023-09-18T14:43:15;3.30;;;2.60;;
7941;SDS011;4016;50.758;7.150;2023-09-18T14:48:15;3.03;;;2.72;;
7941;SDS011;4016;50.758;7.150;2023-09-18T14:53:15;2.63;;;2.42;;
7941;SDS011;4016;50.758;7.150;2023-09-18T14:58:16;2.83;;;2.53;;
7941;SDS011;4016;50.758;7.150;2023-09-18T15:03:18;2.90;;;2.70;;
7941;SDS011;4016;50.758;7.150;2023-09-18T15:08:18;3.10;;;2.60;;
7941;SDS011;4016;50.758;7.150;2023-09-18T15:13:20;2.83;;;2.63;;
7941;SDS011;4016;50.758;7.150;2023-09-18T15:18:20;2.85;;;2.40;;
7941;SDS011;4016;50.758;7.150;2023-09-18T15:23:21;3.15;;;2.63;;
7941;SDS011;4016;50.758;7.150;2023-09-18T15:28:23;4.28;;;2.50;;
7941;SDS011;4016;50.758;7.150;2023-09-18T15:33:23;2.90;;;2.50;;
7941;SDS011;4016;50.758;7.150;2023-09-18T15:38:25;2.78;;;2.58;;
7941;SDS011;4016;50.758;7.150;2023-09-18T15:43:26;2.20;;;2.10;;
7941;SDS011;4016;50.758;7.150;2023-09-18T15:48:27;3.00;;;2.70;;
7941;SDS011;4016;50.758;7.150;2023-09-18T15:53:28;1.90;;;1.80;;
7941;SDS011;4016;50.758;7.150;2023-09-18T15:58:28;2.60;;;2.40;;
7941;SDS011;4016;50.758;7.150;2023-09-18T16:03:29;2.45;;;2.25;;
7941;SDS011;4016;50.758;7.150;2023-09-18T16:08:29;2.50;;;2.30;;
7941;SDS011;4016;50.758;7.150;2023-09-18T16:13:30;2.97;;;2.65;;
7941;SDS011;4016;50.758;7.150;2023-09-18T16:18:30;2.80;;;2.60;;
7941;SDS011;4016;50.758;7.150;2023-09-18T16:23:30;2.65;;;2.40;;
7941;SDS011;4016;50.758;7.150;2023-09-18T16:28:31;3.10;;;2.27;;
7941;SDS011;4016;50.758;7.150;2023-09-18T16:33:31;3.72;;;2.40;;
7941;SDS011;4016;50.758;7.150;2023-09-18T16:38:32;2.50;;;2.30;;
7941;SDS011;4016;50.758;7.150;2023-09-18T16:43:32;3.45;;;2.55;;
7941;SDS011;4016;50.758;7.150;2023-09-18T16:48:32;3.22;;;2.55;;
7941;SDS011;4016;50.758;7.150;2023-09-18T16:53:34;2.33;;;2.13;;
7941;SDS011;4016;50.758;7.150;2023-09-18T16:58:34;3.25;;;2.95;;
7941;SDS011;4016;50.758;7.150;2023-09-18T17:03:35;3.00;;;2.65;;
7941;SDS011;4016;50.758;7.150;2023-09-18T17:08:35;3.70;;;2.67;;
7941;SDS011;4016;50.758;7.150;2023-09-18T17:13:36;3.38;;;2.65;;
7941;SDS011;4016;50.758;7.150;2023-09-18T17:18:36;4.05;;;2.80;;
7941;SDS011;4016;50.758;7.150;2023-09-18T17:23:38;3.20;;;2.63;;
7941;SDS011;4016;50.758;7.150;2023-09-18T17:28:38;2.85;;;2.50;;
7941;SDS011;4016;50.758;7.150;2023-09-18T17:33:38;3.20;;;2.88;;
7941;SDS011;4016;50.758;7.150;2023-09-18T17:38:40;4.47;;;2.90;;
7941;SDS011;4016;50.758;7.150;2023-09-18T17:43:41;3.53;;;2.63;;
7941;SDS011;4016;50.758;7.150;2023-09-18T17:48:42;2.95;;;2.75;;
7941;SDS011;4016;50.758;7.150;2023-09-18T17:53:43;3.00;;;2.70;;
7941;SDS011;4016;50.758;7.150;2023-09-18T17:58:43;3.67;;;2.88;;
7941;SDS011;4016;50.758;7.150;2023-09-18T18:03:44;3.13;;;2.70;;
7941;SDS011;4016;50.758;7.150;2023-09-18T18:08:45;2.80;;;2.60;;
7941;SDS011;4016;50.758;7.150;2023-09-18T18:13:45;3.05;;;2.75;;
7941;SDS011;4016;50.758;7.150;2023-09-18T18:18:46;2.83;;;2.50;;
7941;SDS011;4016;50.758;7.150;2023-09-18T18:23:47;3.20;;;2.90;;
7941;SDS011;4016;50.758;7.150;2023-09-18T18:28:47;2.97;;;2.67;;
7941;SDS011;4016;50.758;7.150;2023-09-18T18:33:48;2.92;;;2.60;;
7941;SDS011;4016;50.758;7.150;2023-09-18T18:38:48;4.82;;;2.50;;
7941;SDS011;4016;50.758;7.150;2023-09-18T18:43:49;2.15;;;1.98;;
7941;SDS011;4016;50.758;7.150;2023-09-18T18:48:49;2.08;;;1.67;;
7941;SDS011;4016;50.758;7.150;2023-09-18T18:53:49;8.73;;;1.90;;
7941;SDS011;4016;50.758;7.150;2023-09-18T18:58:50;2.67;;;2.05;;
7941;SDS011;4016;50.758;7.150;2023-09-18T19:03:51;3.25;;;2.20;;
7941;SDS011;4016;50.758;7.150;2023-09-18T19:08:53;1.77;;;1.63;;
7941;SDS011;4016;50.758;7.150;2023-09-18T19:13:54;1.75;;;1.65;;
7941;SDS011;4016;50.758;7.150;2023-09-18T19:18:54;2.13;;;2.03;;
7941;SDS011;4016;50.758;7.150;2023-09-18T19:23:57;3.70;;;1.83;;
7941;SDS011;4016;50.758;7.150;2023-09-18T19:28:57;3.20;;;2.15;;
7941;SDS011;4016;50.758;7.150;2023-09-18T19:33:57;1.98;;;1.88;;
7941;SDS011;4016;50.758;7.150;2023-09-18T19:39:00;2.03;;;1.80;;
7941;SDS011;4016;50.758;7.150;2023-09-18T19:44:01;4.00;;;2.20;;
7941;SDS011;4016;50.758;7.150;2023-09-18T19:49:01;2.63;;;2.30;;
7941;SDS011;4016;50.758;7.150;2023-09-18T19:54:04;2.75;;;2.28;;
7941;SDS011;4016;50.758;7.150;2023-09-18T19:59:06;3.42;;;2.38;;
7941;SDS011;4016;50.758;7.150;2023-09-18T20:04:06;3.83;;;2.83;;
7941;SDS011;4016;50.758;7.150;2023-09-18T20:09:07;2.95;;;2.38;;
7941;SDS011;4016;50.758;7.150;2023-09-18T20:14:09;2.92;;;2.53;;
7941;SDS011;4016;50.758;7.150;2023-09-18T20:19:10;2.97;;;2.42;;
7941;SDS011;4016;50.758;7.150;2023-09-18T20:24:14;3.00;;;2.40;;
7941;SDS011;4016;50.758;7.150;2023-09-18T20:29:15;3.90;;;2.50;;
7941;SDS011;4016;50.758;7.150;2023-09-18T20:34:15;3.00;;;2.70;;
7941;SDS011;4016;50.758;7.150;2023-09-18T20:39:16;3.17;;;2.35;;
7941;SDS011;4016;50.758;7.150;2023-09-18T20:44:17;3.15;;;2.30;;
7941;SDS011;4016;50.758;7.150;2023-09-18T20:49:17;3.50;;;2.08;;
7941;SDS011;4016;50.758;7.150;2023-09-18T20:54:18;2.90;;;2.38;;
7941;SDS011;4016;50.758;7.150;2023-09-18T20:59:18;2.40;;;2.20;;
7941;SDS011;4016;50.758;7.150;2023-09-18T21:04:19;2.53;;;2.20;;
7941;SDS011;4016;50.758;7.150;2023-09-18T21:09:19;3.10;;;2.47;;
7941;SDS011;4016;50.758;7.150;2023-09-18T21:14:19;3.03;;;2.28;;
7941;SDS011;4016;50.758;7.150;2023-09-18T21:19:21;4.18;;;2.28;;
7941;SDS011;4016;50.758;7.150;2023-09-18T21:24:22;2.47;;;2.28;;
7941;SDS011;4016;50.758;7.150;2023-09-18T21:29:22;2.17;;;2.03;;
7941;SDS011;4016;50.758;7.150;2023-09-18T21:34:25;2.55;;;2.35;;
7941;SDS011;4016;50.758;7.150;2023-09-18T21:39:26;2.53;;;2.33;;
7941;SDS011;4016;50.758;7.150;2023-09-18T21:44:26;2.20;;;2.10;;
7941;SDS011;4016;50.758;7.150;2023-09-18T21:49:27;2.35;;;2.00;;
7941;SDS011;4016;50.758;7.150;2023-09-18T21:54:27;2.45;;;2.25;;
7941;SDS011;4016;50.758;7.150;2023-09-18T21:59:28;2.75;;;2.55;;
7941;SDS011;4016;50.758;7.150;2023-09-18T22:04:28;2.75;;;2.55;;
7941;SDS011;4016;50.758;7.150;2023-09-18T22:09:29;2.50;;;2.30;;
7941;SDS011;4016;50.758;7.150;2023-09-18T22:14:30;2.15;;;1.92;;
7941;SDS011;4016;50.758;7.150;2023-09-18T22:19:31;2.73;;;2.37;;
7941;SDS011;4016;50.758;7.150;2023-09-18T22:24:32;2.92;;;2.55;;
7941;SDS011;4016;50.758;7.150;2023-09-18T22:29:32;3.55;;;2.88;;
7941;SDS011;4016;50.758;7.150;2023-09-18T22:34:32;3.00;;;2.70;;
7941;SDS011;4016;50.758;7.150;2023-09-18T22:56:14;4.33;;;2.60;;
7941;SDS011;4016;50.758;7.150;2023-09-18T23:01:15;4.63;;;3.00;;
7941;SDS011;4016;50.758;7.150;2023-09-18T23:06:16;2.57;;;2.37;;
7941;SDS011;4016;50.758;7.150;2023-09-18T23:11:16;3.57;;;2.63;;
7941;SDS011;4016;50.758;7.150;2023-09-18T23:16:19;3.77;;;2.67;;
7941;SDS011;4016;50.758;7.150;2023-09-18T23:21:25;3.30;;;2.33;;
7941;SDS011;4016;50.758;7.150;2023-09-18T23:26:25;2.67;;;2.43;;
7941;SDS011;4016;50.758;7.150;2023-09-18T23:31:28;3.63;;;2.63;;
7941;SDS011;4016;50.758;7.150;2023-09-18T23:36:30;4.17;;;2.80;;
7941;SDS011;4016;50.758;7.150;2023-09-18T23:41:30;3.80;;;2.87;;
7941;SDS011;4016;50.758;7.150;2023-09-18T23:46:32;3.20;;;2.47;;
7941;SDS011;4016;50.758;7.150;2023-09-18T23:51:32;2.90;;;2.40;;
7941;SDS011;4016;50.758;7.150;2023-09-18T23:56:34;3.73;;;2.53;;
